Rhyolite, Nevada
Current Conditions -  °F | °C
As of 12:52 PM on Thursday 20 Nov 2014 (Local Time) from KDRA Reporting Station
Clear Clear  
Wind Chill: 60°   Ceiling: Unl
Heat Index: 60°   Visibility: 10mi
Dew Point: 13°   Wind: 7mph
Humidity: 16%   Direction: 250°WSW
Pressure: 30.01"   Gusts: NA
Location:  36.9096°N, 116.761°W
Report Text: KDRA 202052Z AUTO 25006KT 10SM CLR 16/M11 A3001 RMK AO2 SLP146 T01561106
Loading
Personal Weather Stations






























Interactive Weather Map New forecast layout! Learn more

10-Day Weather Forecast

Advertisements
Track Severe Weather on mobile